Agua Bronca, Mexico

2:56 PM MST on February 22, 2017 (GMT -0700)
MEPZ03 | | Change Station

Elev 3558 ft 31.30 °N, 105.85 °W | Updated 18 minutes ago

Clear
Clear
79.0 °F
Feels Like 78 °F
N
5.0
Wind Variable Wind from West

Today
High -- | Low -- °F
--% Chance of Precip.
Yesterday
High -- | Low -- °F
Precip. -- in
Pressure 29.72 in
Visibility 10.0 miles
Clouds Clear
Heat Index 78 °F
Dew Point 35 °F
Humidity 20%
Rainfall 0.00 in
Snow Depth Not available.
6:36 AM 5:56 PM
Waning Crescent, 15% visible
METAR MMCS 222041Z 24011KT 10SM SKC 25/04 A2994 RMK SLP062 58030 993
Pressure 29.72 in
Visibility 10.0 miles
Clouds Clear
Heat Index 78 °F
Dew Point 35 °F
Humidity 20%
Rainfall 0.00 in
Snow Depth Not available.
6:36 AM 5:56 PM
Waning Crescent, 15% visible
METAR MMCS 222041Z 24011KT 10SM SKC 25/04 A2994 RMK SLP062 58030 993

Get Your Daily Forecast Email!

Thanks for signing up!

Be on the lookout for a verification email in your inbox.

You'll start receiving the daily forecast at 8 AM.

×

10-Day Weather Forecast

No radar image for this location.
×

Almanac

Astronomy

Feb. 22, 2017 Rise Set
Actual Time
Civil Twilight
Nautical Twilight
Astronomical Twilight
Moon
Length of Visible Light
Length of Day
Tomorrow will be .
, % of the Moon is Illuminated

Today's Extremes

Country Highs Country Lows

Community

WunderPhotos

Upload Photos

1,962,540 photos uploaded!

WunderBlog® & News

Nearby

Air Quality

  Air Quality AQ Index Pollutant
Not available.

Snow Depth

Station Depth Elevation

Earthquake Activity

City Distance Mag. Time & Date
Minimum magnitude displayed is 2.5.

Coastal Water Temperatures

Place Temperature

Stations

Nearby Weather Stations

Station Location Temp. Windchill Dew Point Humidity Wind Precip. Elev Updated Type